Time;durP1;ratioP1;P1;durP2;ratioP2;P2;SDS_P1;SDS_P2;PMS_P1;PMS_P2;Temp;Humidity;BMP_temperature;BMP_pressure;BME280_temperature;BME280_humidity;BME280_pressure;Samples;Min_cycle;Max_cycle;Signal;HPM_P1;HPM_P2
2021/11/04 00:01:07;;;;;;;0.10;0.10;;;8.20;99.90;;;;;;5094862;28;20050;-64
2021/11/04 00:03:52;;;;;;;0.10;0.10;;;8.10;99.90;;;;;;5095164;28;20093;-64
2021/11/04 00:06:37;;;;;;;0.10;0.10;;;8.20;99.90;;;;;;5093659;28;20106;-64
2021/11/04 00:09:21;;;;;;;0.08;0.08;;;8.20;99.90;;;;;;5094906;28;20168;-64
2021/11/04 00:12:07;;;;;;;0.10;0.10;;;8.20;99.90;;;;;;5093662;28;20096;-64
2021/11/04 00:14:51;;;;;;;0.70;0.52;;;8.10;99.90;;;;;;5093549;28;20089;-64
2021/11/04 00:17:36;;;;;;;0.10;0.10;;;8.10;99.90;;;;;;5094384;28;20101;-64
2021/11/04 00:20:21;;;;;;;0.55;0.55;;;8.20;99.90;;;;;;5094259;28;20085;-64
2021/11/04 00:23:05;;;;;;;0.10;0.10;;;8.10;99.90;;;;;;5094644;28;20039;-64
2021/11/04 00:25:50;;;;;;;0.05;0.05;;;8.10;99.90;;;;;;5093003;28;20173;-64
2021/11/04 00:28:34;;;;;;;0.10;0.10;;;8.10;99.90;;;;;;5093624;28;20043;-64
2021/11/04 00:31:19;;;;;;;0.08;0.08;;;8.10;99.90;;;;;;5094299;28;20412;-65
2021/11/04 00:34:04;;;;;;;1.23;0.75;;;8.20;99.90;;;;;;5093040;28;20043;-65
2021/11/04 00:36:48;;;;;;;0.00;0.00;;;8.20;99.90;;;;;;5094010;28;20101;-64
2021/11/04 00:39:33;;;;;;;0.65;0.65;;;8.20;99.90;;;;;;5093191;28;20478;-64
2021/11/04 00:42:18;;;;;;;0.10;0.10;;;8.20;99.90;;;;;;5093130;28;20035;-64
2021/11/04 00:45:03;;;;;;;0.00;0.00;;;8.20;99.90;;;;;;5094055;28;20078;-64
2021/11/04 00:47:50;;;;;;;0.30;0.30;;;8.10;99.90;;;;;;5092995;28;20541;-64
2021/11/04 00:50:35;;;;;;;1.55;1.17;;;8.00;99.90;;;;;;5092907;28;20063;-64
2021/11/04 00:53:19;;;;;;;0.05;0.05;;;8.00;99.90;;;;;;5093673;28;20089;-64
2021/11/04 00:56:04;;;;;;;0.10;0.10;;;8.00;99.90;;;;;;5093973;28;20089;-64
2021/11/04 00:58:49;;;;;;;0.30;0.30;;;8.00;99.90;;;;;;5093389;28;20152;-64
2021/11/04 01:01:33;;;;;;;0.10;0.10;;;8.00;99.90;;;;;;5093539;28;20128;-64
2021/11/04 01:04:17;;;;;;;0.10;0.10;;;8.00;99.90;;;;;;5093721;28;20046;-64
2021/11/04 01:07:02;;;;;;;2.10;1.13;;;8.10;99.90;;;;;;5093619;28;20152;-64
2021/11/04 01:09:46;;;;;;;0.00;0.00;;;8.10;99.90;;;;;;5093538;28;20043;-64
2021/11/04 01:12:31;;;;;;;0.55;0.55;;;8.10;99.90;;;;;;5093217;28;20061;-64
2021/11/04 01:15:15;;;;;;;0.55;0.55;;;8.10;99.90;;;;;;5092548;28;20396;-64
2021/11/04 01:17:59;;;;;;;0.13;0.13;;;8.10;99.90;;;;;;5093453;28;20089;-64
2021/11/04 01:20:44;;;;;;;0.15;0.15;;;8.10;99.90;;;;;;5092740;28;20062;-64
2021/11/04 01:23:28;;;;;;;0.10;0.10;;;8.10;99.90;;;;;;5093295;28;20043;-64
2021/11/04 01:26:13;;;;;;;0.08;0.08;;;8.10;99.90;;;;;;5093420;28;20035;-64
2021/11/04 01:28:57;;;;;;;0.10;0.10;;;8.10;99.90;;;;;;5092274;28;20230;-64
2021/11/04 01:31:42;;;;;;;0.10;0.10;;;8.10;99.90;;;;;;5092031;28;20093;-64
2021/11/04 01:34:27;;;;;;;0.00;0.00;;;8.10;99.90;;;;;;5092129;28;20066;-64
2021/11/04 01:37:11;;;;;;;1.20;1.10;;;8.00;99.90;;;;;;5093109;28;20039;-64
2021/11/04 01:39:55;;;;;;;0.10;0.10;;;8.10;99.90;;;;;;5093358;28;20442;-64
2021/11/04 01:42:40;;;;;;;0.10;0.10;;;8.00;99.90;;;;;;5091822;28;20043;-64
2021/11/04 01:45:25;;;;;;;1.02;0.93;;;8.00;99.90;;;;;;5093116;28;20088;-64
2021/11/04 01:48:11;;;;;;;0.10;0.10;;;8.20;99.90;;;;;;5092929;28;20096;-64
2021/11/04 01:50:58;;;;;;;0.38;0.38;;;8.10;99.90;;;;;;5092818;28;20074;-64
2021/11/04 01:53:43;;;;;;;0.28;0.28;;;8.00;99.90;;;;;;5092736;28;20039;-64
2021/11/04 01:56:28;;;;;;;0.25;0.25;;;8.10;99.90;;;;;;5091874;28;20101;-64
2021/11/04 01:59:13;;;;;;;1.08;1.08;;;8.10;99.90;;;;;;5092145;28;20392;-64
2021/11/04 02:02:17;;;;;;;0.08;0.08;;;8.00;99.90;;;;;;5106062;28;20047;-64
2021/11/04 02:05:05;;;;;;;0.82;0.82;;;8.10;99.90;;;;;;5091799;28;20047;-64
2021/11/04 02:08:01;;;;;;;0.63;0.63;;;8.00;99.90;;;;;;5092566;28;20034;-64
2021/11/04 02:11:08;;;;;;;0.05;0.05;;;8.00;99.90;;;;;;5091546;28;20519;-64
2021/11/04 02:14:00;;;;;;;0.00;0.00;;;7.90;99.90;;;;;;5092400;28;20039;-64
2021/11/04 02:16:45;;;;;;;0.13;0.13;;;7.90;99.90;;;;;;5091470;28;20446;-64
2021/11/04 02:19:38;;;;;;;0.30;0.30;;;8.00;99.90;;;;;;5091608;28;20507;-64
2021/11/04 02:22:37;;;;;;;0.00;0.00;;;7.90;99.90;;;;;;5092586;28;20069;-64
2021/11/04 02:25:31;;;;;;;0.00;0.00;;;7.90;99.90;;;;;;5091350;28;20050;-64
2021/11/04 02:28:19;;;;;;;0.20;0.20;;;7.90;99.90;;;;;;5091574;28;20039;-64
2021/11/04 02:31:05;;;;;;;0.03;0.03;;;7.90;99.90;;;;;;5091572;28;20554;-64
2021/11/04 02:33:50;;;;;;;0.82;0.65;;;7.90;99.90;;;;;;5091350;28;20054;-64
2021/11/04 02:36:37;;;;;;;0.00;0.00;;;7.80;99.90;;;;;;5091503;28;20109;-64
2021/11/04 02:39:24;;;;;;;0.30;0.30;;;7.80;99.90;;;;;;5091463;28;20071;-64
2021/11/04 02:42:10;;;;;;;0.00;0.00;;;7.80;99.90;;;;;;5091498;28;20067;-64
2021/11/04 02:44:56;;;;;;;0.30;0.30;;;7.80;99.90;;;;;;5090995;28;20050;-64
2021/11/04 02:47:40;;;;;;;0.30;0.30;;;7.80;99.90;;;;;;5091563;28;20407;-64
2021/11/04 02:50:25;;;;;;;0.15;0.15;;;7.80;99.90;;;;;;5105825;28;20097;-64
2021/11/04 02:53:16;;;;;;;0.00;0.00;;;7.80;99.90;;;;;;5091065;28;20071;-64
2021/11/04 02:56:00;;;;;;;0.10;0.10;;;7.80;99.90;;;;;;5092222;28;20115;-64
2021/11/04 02:58:45;;;;;;;0.00;0.00;;;7.70;99.90;;;;;;5092117;28;20109;-64
2021/11/04 03:01:29;;;;;;;0.00;0.00;;;7.70;99.90;;;;;;5091211;28;20508;-64
2021/11/04 03:04:19;;;;;;;0.13;0.13;;;7.80;99.90;;;;;;5092073;28;20039;-64
2021/11/04 03:07:04;;;;;;;0.00;0.00;;;7.70;99.90;;;;;;5092257;28;20523;-64
2021/11/04 03:09:48;;;;;;;0.00;0.00;;;7.70;99.90;;;;;;5091974;28;20066;-63
2021/11/04 03:12:33;;;;;;;0.10;0.10;;;7.70;99.90;;;;;;5092228;28;20039;-65
2021/11/04 03:15:21;;;;;;;0.00;0.00;;;7.80;99.90;;;;;;5092254;28;20097;-63
2021/11/04 03:18:08;;;;;;;0.20;0.20;;;7.80;99.90;;;;;;5091274;28;20043;-65
2021/11/04 03:20:53;;;;;;;0.00;0.00;;;7.90;99.90;;;;;;5090442;28;20055;-64
2021/11/04 03:23:38;;;;;;;0.00;0.00;;;7.90;99.90;;;;;;5094515;28;20046;-65
2021/11/04 03:26:25;;;;;;;0.08;0.08;;;7.80;99.90;;;;;;5094684;28;20043;-64
2021/11/04 03:29:11;;;;;;;0.00;0.00;;;7.80;99.90;;;;;;5094669;28;20058;-64
2021/11/04 03:31:56;;;;;;;0.00;0.00;;;7.80;99.90;;;;;;5094476;28;20108;-64
2021/11/04 03:34:43;;;;;;;0.28;0.28;;;7.70;99.90;;;;;;5094328;28;20039;-64
2021/11/04 03:37:28;;;;;;;0.00;0.00;;;7.70;99.90;;;;;;5094491;28;20046;-64
2021/11/04 03:40:15;;;;;;;0.20;0.15;;;7.60;99.90;;;;;;5094351;28;20089;-64
2021/11/04 03:43:00;;;;;;;0.00;0.00;;;7.50;99.90;;;;;;5094294;28;20083;-64
2021/11/04 03:45:45;;;;;;;0.05;0.05;;;7.40;99.90;;;;;;5093871;28;20181;-64
2021/11/04 03:48:30;;;;;;;0.00;0.00;;;7.30;99.90;;;;;;5094360;28;20043;-64
2021/11/04 03:51:17;;;;;;;0.25;0.25;;;7.30;99.90;;;;;;5094168;28;20055;-64
2021/11/04 03:54:02;;;;;;;0.00;0.00;;;7.20;99.90;;;;;;5093986;28;20035;-64
2021/11/04 03:56:46;;;;;;;0.00;0.00;;;7.20;99.90;;;;;;5094785;28;20035;-64
2021/11/04 03:59:31;;;;;;;0.10;0.10;;;7.10;99.90;;;;;;5094370;28;20149;-64
2021/11/04 04:02:15;;;;;;;0.10;0.10;;;7.00;99.90;;;;;;5094989;28;20506;-64
2021/11/04 04:05:00;;;;;;;0.55;0.55;;;7.00;99.90;;;;;;5093414;28;20484;-64
2021/11/04 04:07:44;;;;;;;0.10;0.10;;;7.00;99.90;;;;;;5093838;28;20061;-64
2021/11/04 04:10:31;;;;;;;0.00;0.00;;;7.10;99.90;;;;;;5093888;28;20038;-64
2021/11/04 04:13:16;;;;;;;0.00;0.00;;;7.10;99.90;;;;;;5094932;28;20054;-64
2021/11/04 04:16:01;;;;;;;0.00;0.00;;;7.10;99.90;;;;;;5094596;28;20039;-64
2021/11/04 04:18:45;;;;;;;0.00;0.00;;;7.10;99.90;;;;;;5094535;28;20084;-64
2021/11/04 04:21:30;;;;;;;0.20;0.20;;;7.10;99.90;;;;;;5094545;28;20055;-64
2021/11/04 04:24:14;;;;;;;0.73;0.73;;;7.10;99.90;;;;;;5094777;28;20484;-64
2021/11/04 04:27:01;;;;;;;0.55;0.55;;;7.20;99.90;;;;;;5094390;28;20088;-64
2021/11/04 04:29:45;;;;;;;0.10;0.10;;;7.10;99.90;;;;;;5093270;28;20608;-64
2021/11/04 04:32:29;;;;;;;0.00;0.00;;;7.10;99.90;;;;;;5094313;28;20039;-64
2021/11/04 04:35:15;;;;;;;0.93;0.93;;;7.00;99.90;;;;;;5092717;28;20143;-64
2021/11/04 04:38:00;;;;;;;0.25;0.25;;;6.90;99.90;;;;;;5091192;28;20105;-64
2021/11/04 04:40:45;;;;;;;0.10;0.10;;;6.90;99.90;;;;;;5096177;28;20043;-64
2021/11/04 04:43:29;;;;;;;0.05;0.05;;;6.90;99.90;;;;;;5076447;28;20059;-64
2021/11/04 04:46:13;;;;;;;0.00;0.00;;;6.90;99.90;;;;;;5082568;28;20051;-66
2021/11/04 04:48:58;;;;;;;0.10;0.10;;;6.90;99.90;;;;;;5083459;28;20035;-64
2021/11/04 04:51:42;;;;;;;0.13;0.13;;;6.90;99.90;;;;;;5083075;28;20673;-66
2021/11/04 04:54:27;;;;;;;0.00;0.00;;;7.00;99.90;;;;;;5080528;28;20070;-66
2021/11/04 04:57:11;;;;;;;0.00;0.00;;;7.00;99.90;;;;;;5080260;28;20097;-66
2021/11/04 04:59:58;;;;;;;0.00;0.00;;;7.00;99.90;;;;;;5094004;28;20069;-65
2021/11/04 05:02:44;;;;;;;0.05;0.05;;;7.00;99.90;;;;;;5092797;28;20166;-65
2021/11/04 05:05:29;;;;;;;1.90;1.02;;;6.90;99.90;;;;;;5093443;28;20046;-65
2021/11/04 05:08:13;;;;;;;0.08;0.08;;;6.90;99.90;;;;;;5093646;28;20089;-65
2021/11/04 05:10:57;;;;;;;1.02;0.50;;;7.00;99.90;;;;;;5093452;28;20507;-65
2021/11/04 05:13:42;;;;;;;0.00;0.00;;;7.00;99.90;;;;;;5093571;28;20077;-65
2021/11/04 05:16:27;;;;;;;0.00;0.00;;;7.00;99.90;;;;;;5087709;28;20042;-64
2021/11/04 05:19:11;;;;;;;0.47;0.47;;;7.00;99.90;;;;;;5084226;28;20039;-64
2021/11/04 05:21:56;;;;;;;0.10;0.10;;;7.10;99.90;;;;;;5093000;28;20614;-66
2021/11/04 05:24:40;;;;;;;0.00;0.00;;;7.10;99.90;;;;;;5093450;28;20081;-66
2021/11/04 05:27:25;;;;;;;0.00;0.00;;;7.10;99.90;;;;;;5091351;28;20054;-66
2021/11/04 05:30:10;;;;;;;0.00;0.00;;;7.10;99.90;;;;;;5093015;28;20047;-66
2021/11/04 05:32:54;;;;;;;0.00;0.00;;;7.10;99.90;;;;;;5082813;28;20059;-66
2021/11/04 05:35:39;;;;;;;0.00;0.00;;;7.00;99.90;;;;;;5072862;28;20047;-66
2021/11/04 05:38:23;;;;;;;0.00;0.00;;;7.00;99.90;;;;;;5079698;28;20389;-66
2021/11/04 05:41:08;;;;;;;0.15;0.15;;;7.00;99.90;;;;;;5091847;28;20063;-65
2021/11/04 05:43:52;;;;;;;1.17;0.90;;;7.00;99.90;;;;;;5092634;28;20039;-64
2021/11/04 05:46:37;;;;;;;0.00;0.00;;;7.00;99.90;;;;;;5091869;28;20119;-64
2021/11/04 05:49:22;;;;;;;0.00;0.00;;;7.10;99.90;;;;;;5092939;28;20030;-64
2021/11/04 05:52:06;;;;;;;0.00;0.00;;;7.10;99.90;;;;;;5091790;28;20085;-64
2021/11/04 05:54:56;;;;;;;0.10;0.10;;;7.10;99.90;;;;;;5106048;28;20039;-64
2021/11/04 05:57:40;;;;;;;0.00;0.00;;;7.10;99.90;;;;;;5092803;28;20062;-64
2021/11/04 06:00:24;;;;;;;0.40;0.40;;;7.10;99.90;;;;;;5092534;28;20552;-64
2021/11/04 06:03:10;;;;;;;0.25;0.25;;;7.10;99.90;;;;;;5092564;28;20097;-64
2021/11/04 06:05:55;;;;;;;0.63;0.63;;;7.10;99.90;;;;;;5092165;28;20079;-64
2021/11/04 06:08:40;;;;;;;0.00;0.00;;;7.20;99.90;;;;;;5083468;28;20075;-64
2021/11/04 06:11:24;;;;;;;0.00;0.00;;;7.20;99.90;;;;;;5072111;28;20048;-64
2021/11/04 06:14:08;;;;;;;0.00;0.00;;;7.20;99.90;;;;;;5072628;28;20137;-64
2021/11/04 06:16:53;;;;;;;0.10;0.10;;;7.20;99.90;;;;;;5072180;28;20067;-64
2021/11/04 06:19:37;;;;;;;0.17;0.17;;;7.30;99.90;;;;;;5072136;28;20091;-64
2021/11/04 06:22:22;;;;;;;0.00;0.00;;;7.30;99.90;;;;;;5072419;28;20555;-65
2021/11/04 06:25:07;;;;;;;0.28;0.28;;;7.30;99.90;;;;;;5072037;28;20087;-64
2021/11/04 06:27:51;;;;;;;0.25;0.25;;;7.40;99.90;;;;;;5071904;28;20078;-64
2021/11/04 06:30:36;;;;;;;0.00;0.00;;;7.40;99.90;;;;;;5099371;28;20537;-64
2021/11/04 06:33:20;;;;;;;0.30;0.30;;;7.30;99.90;;;;;;5090489;28;20046;-64
2021/11/04 06:36:04;;;;;;;0.10;0.10;;;7.40;99.90;;;;;;5090855;28;20063;-64
2021/11/04 06:38:50;;;;;;;0.00;0.00;;;7.40;99.90;;;;;;5091167;28;20100;-65
2021/11/04 06:41:34;;;;;;;0.00;0.00;;;7.40;99.90;;;;;;5072147;28;20040;-65
2021/11/04 06:44:19;;;;;;;0.00;0.00;;;7.40;99.90;;;;;;5100552;28;20164;-65
2021/11/04 06:47:06;;;;;;;0.00;0.00;;;7.40;99.90;;;;;;5091214;28;20044;-65
2021/11/04 06:49:54;;;;;;;0.20;0.20;;;7.40;99.90;;;;;;5091035;28;20180;-65
2021/11/04 06:52:49;;;;;;;0.20;0.20;;;7.40;99.90;;;;;;5090986;28;20192;-65
2021/11/04 06:55:42;;;;;;;0.00;0.00;;;7.40;99.90;;;;;;5092623;28;20121;-65
2021/11/04 06:58:30;;;;;;;0.10;0.10;;;7.40;99.90;;;;;;5095609;28;20093;-65
2021/11/04 07:01:17;;;;;;;0.10;0.10;;;7.40;99.90;;;;;;5095207;28;20094;-65
2021/11/04 07:04:13;;;;;;;6.05;3.30;;;7.50;99.90;;;;;;5095477;28;20142;-65
2021/11/04 07:07:09;;;;;;;4.97;2.00;;;7.50;99.90;;;;;;5094947;28;20051;-65
2021/11/04 07:09:54;;;;;;;0.00;0.00;;;7.50;99.90;;;;;;5095770;28;20397;-65
2021/11/04 07:12:47;;;;;;;0.57;0.57;;;7.50;99.90;;;;;;5094861;28;20051;-65
2021/11/04 07:15:34;;;;;;;0.00;0.00;;;7.60;99.90;;;;;;5094372;28;20034;-65
2021/11/04 07:18:19;;;;;;;0.60;0.60;;;7.60;99.90;;;;;;5093485;28;20085;-65
2021/11/04 07:21:11;;;;;;;0.10;0.10;;;7.70;99.90;;;;;;5095302;28;20428;-65
2021/11/04 07:24:07;;;;;;;0.47;0.47;;;7.70;99.90;;;;;;5093017;28;20404;-65
2021/11/04 07:26:54;;;;;;;0.13;0.13;;;7.70;99.90;;;;;;5094782;28;20050;-65
2021/11/04 07:29:44;;;;;;;0.85;0.85;;;7.70;99.90;;;;;;5094227;28;20559;-65
2021/11/04 07:32:31;;;;;;;2.50;2.30;;;7.60;99.90;;;;;;5094167;28;20035;-65
2021/11/04 07:35:23;;;;;;;0.10;0.10;;;7.60;99.90;;;;;;5094981;28;20577;-65
2021/11/04 07:38:10;;;;;;;1.33;1.25;;;7.60;99.90;;;;;;5095054;28;20384;-65
2021/11/04 07:40:56;;;;;;;1.60;0.75;;;7.60;99.90;;;;;;5099568;28;20123;-66
2021/11/04 07:43:40;;;;;;;1.30;0.90;;;7.50;99.90;;;;;;5095275;28;20039;-66
2021/11/04 07:46:26;;;;;;;0.22;0.22;;;7.50;99.90;;;;;;5094396;28;20119;-68
2021/11/04 07:49:11;;;;;;;1.42;0.70;;;7.50;99.90;;;;;;5095404;28;20119;-67
2021/11/04 07:52:00;;;;;;;0.10;0.10;;;7.50;99.90;;;;;;5095148;28;20039;-67
2021/11/04 07:54:44;;;;;;;1.23;1.13;;;7.50;99.90;;;;;;5095050;28;20548;-66
2021/11/04 07:57:29;;;;;;;1.65;1.55;;;7.40;99.90;;;;;;5095348;28;20388;-67
2021/11/04 08:00:20;;;;;;;7.97;2.00;;;7.50;99.90;;;;;;5093871;28;20392;-66
2021/11/04 08:03:05;;;;;;;3.35;2.00;;;7.50;99.90;;;;;;5094715;28;20046;-66
2021/11/04 08:05:50;;;;;;;0.95;0.90;;;7.50;99.90;;;;;;5094633;28;20151;-66
2021/11/04 08:08:35;;;;;;;2.85;1.92;;;7.50;99.90;;;;;;5094580;28;20050;-66
2021/11/04 08:11:20;;;;;;;2.75;1.55;;;7.50;99.90;;;;;;5093868;28;20046;-66
2021/11/04 08:14:05;;;;;;;0.20;0.20;;;7.50;99.90;;;;;;5094656;28;20035;-66
2021/11/04 08:16:49;;;;;;;2.28;1.45;;;7.50;99.90;;;;;;5093354;28;20062;-65
2021/11/04 08:19:34;;;;;;;6.03;2.40;;;7.50;99.90;;;;;;5074245;28;20098;-66
2021/11/04 08:22:20;;;;;;;0.73;0.73;;;7.50;99.90;;;;;;5074173;28;20048;-67
2021/11/04 08:25:06;;;;;;;2.53;2.33;;;7.50;99.90;;;;;;5073942;28;20090;-67
2021/11/04 08:27:51;;;;;;;0.32;0.32;;;7.50;99.90;;;;;;5088084;28;20039;-67
2021/11/04 08:30:36;;;;;;;1.80;1.10;;;7.50;99.90;;;;;;5093639;28;20755;-67
2021/11/04 08:33:20;;;;;;;0.28;0.28;;;7.50;99.90;;;;;;5094071;28;20454;-67
2021/11/04 08:36:05;;;;;;;1.08;1.08;;;7.50;99.90;;;;;;5093181;28;20093;-67
2021/11/04 08:38:49;;;;;;;0.10;0.10;;;7.50;99.90;;;;;;5094058;28;20450;-67
2021/11/04 08:41:34;;;;;;;2.58;1.60;;;7.50;99.90;;;;;;5093877;28;20043;-67
2021/11/04 08:44:20;;;;;;;0.85;0.55;;;7.50;99.90;;;;;;5093818;28;20034;-67
2021/11/04 08:47:06;;;;;;;0.50;0.50;;;7.50;99.90;;;;;;5093896;28;20039;-67
2021/11/04 08:49:50;;;;;;;0.85;0.85;;;7.50;99.90;;;;;;5093900;28;20495;-67
2021/11/04 08:52:36;;;;;;;1.60;1.50;;;7.50;99.90;;;;;;5093586;28;20066;-67
2021/11/04 08:55:21;;;;;;;13.70;1.02;;;7.50;99.90;;;;;;5093010;28;20837;-67
2021/11/04 08:58:07;;;;;;;2.95;1.77;;;7.50;99.90;;;;;;5093694;28;20124;-67
2021/11/04 09:00:53;;;;;;;3.83;1.95;;;7.50;99.90;;;;;;5093786;28;20557;-67
2021/11/04 09:03:38;;;;;;;1.02;1.02;;;7.60;99.90;;;;;;5093153;28;20089;-67
2021/11/04 09:06:22;;;;;;;2.25;2.15;;;7.60;99.90;;;;;;5092615;28;20059;-67
2021/11/04 09:09:11;;;;;;;12.68;5.90;;;7.60;99.90;;;;;;5093483;28;20515;-67
2021/11/04 09:11:56;;;;;;;3.15;2.88;;;7.60;99.90;;;;;;5093666;28;20039;-67
2021/11/04 09:14:42;;;;;;;1.45;1.35;;;7.60;99.90;;;;;;5093549;28;20063;-67
2021/11/04 09:17:26;;;;;;;1.80;1.70;;;7.60;99.90;;;;;;5092560;28;20439;-67
2021/11/04 09:20:16;;;;;;;0.50;0.50;;;7.60;99.90;;;;;;5092451;28;20424;-67
2021/11/04 09:23:00;;;;;;;7.68;3.08;;;7.60;99.90;;;;;;5093480;28;20043;-67
2021/11/04 09:25:45;;;;;;;2.80;2.60;;;7.60;99.90;;;;;;5093225;28;20035;-67
2021/11/04 09:28:30;;;;;;;0.65;0.65;;;7.70;99.90;;;;;;5092406;28;20067;-67
2021/11/04 09:31:14;;;;;;;1.70;1.17;;;7.70;99.90;;;;;;5093263;28;20127;-67
2021/11/04 09:33:59;;;;;;;2.03;1.52;;;7.80;99.90;;;;;;5093227;28;20667;-67
2021/11/04 09:36:44;;;;;;;7.13;2.97;;;7.80;99.90;;;;;;5093335;28;20392;-67
2021/11/04 09:39:28;;;;;;;0.10;0.10;;;7.80;99.90;;;;;;5092029;28;20038;-67
2021/11/04 09:42:18;;;;;;;1.38;1.27;;;7.90;99.90;;;;;;5093095;28;20077;-67
2021/11/04 09:45:06;;;;;;;0.40;0.40;;;7.90;99.90;;;;;;5092871;28;20047;-66
2021/11/04 09:47:51;;;;;;;1.50;1.40;;;7.90;99.90;;;;;;5092973;28;20035;-66
2021/11/04 09:50:35;;;;;;;1.17;1.15;;;7.90;99.90;;;;;;5092641;28;20085;-66
2021/11/04 09:53:21;;;;;;;1.23;1.08;;;7.90;99.90;;;;;;5092794;28;20101;-66
2021/11/04 09:56:05;;;;;;;1.48;1.38;;;7.90;99.90;;;;;;5092839;28;20055;-67
2021/11/04 09:58:50;;;;;;;3.88;2.35;;;8.00;99.90;;;;;;5093187;28;20396;-66
2021/11/04 10:01:35;;;;;;;0.68;0.40;;;8.00;99.90;;;;;;5092911;28;20043;-67
2021/11/04 10:04:37;;;;;;;0.90;0.63;;;8.10;99.90;;;;;;5092870;28;20047;-66
2021/11/04 10:07:24;;;;;;;2.17;2.08;;;8.10;99.90;;;;;;5092528;28;20450;-65
2021/11/04 10:10:10;;;;;;;0.63;0.63;;;8.30;99.90;;;;;;5092428;28;20120;-67
2021/11/04 10:13:03;;;;;;;2.72;1.75;;;8.30;99.90;;;;;;5092757;28;20153;-66
2021/11/04 10:15:54;;;;;;;7.47;4.30;;;8.30;99.90;;;;;;5092979;28;20126;-66
2021/11/04 10:18:42;;;;;;;0.75;0.75;;;8.40;99.90;;;;;;5093146;28;20179;-66
2021/11/04 10:21:29;;;;;;;0.25;0.25;;;8.40;99.90;;;;;;5092742;28;20514;-66
2021/11/04 10:24:25;;;;;;;0.00;0.00;;;8.30;99.90;;;;;;5092324;28;20071;-66
2021/11/04 10:27:31;;;;;;;0.35;0.35;;;8.30;99.90;;;;;;5091458;28;20105;-66
2021/11/04 10:30:40;;;;;;;1.20;1.20;;;8.40;99.90;;;;;;5092303;28;20063;-66
2021/11/04 10:33:31;;;;;;;0.63;0.52;;;8.40;99.90;;;;;;5096355;28;20100;-66
2021/11/04 10:36:21;;;;;;;0.00;0.00;;;8.40;99.90;;;;;;5103978;28;20046;-66
2021/11/04 10:39:05;;;;;;;1.17;1.08;;;8.50;99.90;;;;;;5097769;28;20099;-66
2021/11/04 10:41:56;;;;;;;1.27;0.93;;;8.60;99.90;;;;;;5097510;28;20047;-66
2021/11/04 10:44:40;;;;;;;4.35;2.22;;;8.50;99.90;;;;;;5098505;28;20031;-66
2021/11/04 10:47:25;;;;;;;0.17;0.17;;;8.60;99.90;;;;;;5098196;28;20416;-66
2021/11/04 10:50:09;;;;;;;1.33;1.23;;;8.60;99.90;;;;;;5098187;28;20039;-65
2021/11/04 10:53:07;;;;;;;0.00;0.00;;;8.60;99.90;;;;;;5098331;28;20122;-65
2021/11/04 10:56:11;;;;;;;2.00;0.65;;;8.60;99.90;;;;;;5097363;28;20450;-66
2021/11/04 10:59:14;;;;;;;0.30;0.30;;;8.60;99.90;;;;;;5097414;28;20066;-65
2021/11/04 11:02:06;;;;;;;0.15;0.15;;;8.70;99.90;;;;;;5083460;28;20047;-65
2021/11/04 11:04:50;;;;;;;0.10;0.10;;;8.60;99.90;;;;;;5074586;28;20472;-65
2021/11/04 11:07:34;;;;;;;0.00;0.00;;;8.60;99.90;;;;;;5075783;28;20038;-65
2021/11/04 11:10:20;;;;;;;0.10;0.10;;;8.70;99.90;;;;;;5074462;28;20170;-66
2021/11/04 11:13:06;;;;;;;2.85;1.58;;;8.70;99.90;;;;;;5075672;28;20035;-65
2021/11/04 11:15:55;;;;;;;0.73;0.43;;;8.70;99.90;;;;;;5075590;28;20043;-65
2021/11/04 11:18:40;;;;;;;0.03;0.03;;;8.80;99.90;;;;;;5074643;28;20170;-64
2021/11/04 11:21:39;;;;;;;0.00;0.00;;;8.80;99.90;;;;;;5074886;28;20055;-65
2021/11/04 11:24:32;;;;;;;0.20;0.20;;;8.80;99.90;;;;;;5075304;28;20097;-66
2021/11/04 11:27:18;;;;;;;0.40;0.38;;;8.80;99.90;;;;;;5075306;28;20442;-65
2021/11/04 11:30:10;;;;;;;0.10;0.10;;;9.00;99.90;;;;;;5075279;28;20076;-65
2021/11/04 11:33:22;;;;;;;0.28;0.28;;;9.00;99.90;;;;;;5075318;28;20039;-64
2021/11/04 11:36:22;;;;;;;0.10;0.10;;;9.10;99.90;;;;;;5075236;28;20060;-64
2021/11/04 11:39:11;;;;;;;0.30;0.30;;;9.20;99.90;;;;;;5074538;28;20042;-64
2021/11/04 11:41:59;;;;;;;0.40;0.40;;;9.20;99.90;;;;;;5060244;28;20043;-65
2021/11/04 11:45:11;;;;;;;1.88;1.10;;;9.30;99.90;;;;;;5074968;28;20483;-65
2021/11/04 11:48:12;;;;;;;0.45;0.45;;;9.30;99.90;;;;;;5075076;28;20102;-64
2021/11/04 11:50:57;;;;;;;2.00;0.95;;;9.40;99.90;;;;;;5076290;28;20044;-65
2021/11/04 11:53:49;;;;;;;0.10;0.10;;;9.40;99.90;;;;;;5074074;28;20162;-64
2021/11/04 11:56:36;;;;;;;1.77;1.35;;;9.40;99.90;;;;;;5073972;28;20105;-64
2021/11/04 11:59:28;;;;;;;0.10;0.10;;;9.40;99.90;;;;;;5073393;28;20484;-64
2021/11/04 12:02:35;;;;;;;0.75;0.75;;;9.30;99.90;;;;;;5073724;28;20036;-64
2021/11/04 12:05:23;;;;;;;0.68;0.68;;;9.20;99.90;;;;;;5074220;28;20079;-64
2021/11/04 12:08:13;;;;;;;0.20;0.20;;;9.20;99.90;;;;;;5076378;28;20109;-64
2021/11/04 12:11:00;;;;;;;2.40;2.20;;;9.20;99.90;;;;;;5094635;28;20545;-64
2021/11/04 12:13:45;;;;;;;0.47;0.47;;;9.20;99.90;;;;;;5094969;28;20128;-64
2021/11/04 12:16:30;;;;;;;0.73;0.73;;;9.30;99.90;;;;;;5094276;28;20035;-64
2021/11/04 12:19:14;;;;;;;0.50;0.50;;;9.10;99.90;;;;;;5094360;28;20388;-64
2021/11/04 12:21:59;;;;;;;0.22;0.22;;;9.10;99.90;;;;;;5094288;28;20097;-64
2021/11/04 12:25:07;;;;;;;0.00;0.00;;;9.10;99.90;;;;;;5094222;28;20385;-65
2021/11/04 12:27:58;;;;;;;0.40;0.40;;;9.10;99.90;;;;;;5094316;28;20055;-65
2021/11/04 12:30:43;;;;;;;0.85;0.60;;;9.20;99.90;;;;;;5094645;28;20118;-65
2021/11/04 12:33:34;;;;;;;1.55;1.38;;;9.10;99.90;;;;;;5093882;28;20500;-65
2021/11/04 12:36:31;;;;;;;0.00;0.00;;;9.10;99.90;;;;;;5073794;28;20078;-65
2021/11/04 12:39:23;;;;;;;0.80;0.80;;;9.00;99.90;;;;;;5071907;28;20471;-65
2021/11/04 12:42:07;;;;;;;0.13;0.13;;;9.10;99.90;;;;;;5073941;28;20400;-65
2021/11/04 12:44:52;;;;;;;0.05;0.05;;;9.00;99.90;;;;;;5073598;28;20105;-65
2021/11/04 12:47:37;;;;;;;0.00;0.00;;;9.00;99.90;;;;;;5073612;28;20040;-64
2021/11/04 12:50:29;;;;;;;0.45;0.45;;;9.00;99.90;;;;;;5073660;28;20121;-64
2021/11/04 12:53:14;;;;;;;5.50;1.85;;;9.00;99.90;;;;;;5073441;28;20078;-64
2021/11/04 12:55:58;;;;;;;0.00;0.00;;;9.00;99.90;;;;;;5075331;28;20043;-64
2021/11/04 12:58:48;;;;;;;0.68;0.68;;;9.00;99.90;;;;;;5093892;28;20137;-64
2021/11/04 13:02:03;;;;;;;0.10;0.10;;;9.00;99.90;;;;;;5092612;28;20495;-64
2021/11/04 13:04:54;;;;;;;0.45;0.45;;;9.00;99.90;;;;;;5093516;28;20046;-64
2021/11/04 13:07:49;;;;;;;0.77;0.77;;;9.10;99.90;;;;;;5093356;28;20420;-64
2021/11/04 13:10:33;;;;;;;0.80;0.80;;;9.10;99.90;;;;;;5093247;28;20079;-64
2021/11/04 13:13:18;;;;;;;1.25;1.08;;;9.10;99.90;;;;;;5093442;28;20085;-64
2021/11/04 13:16:03;;;;;;;0.03;0.03;;;9.10;99.90;;;;;;5093264;28;20085;-64
2021/11/04 13:18:47;;;;;;;0.13;0.13;;;9.10;99.90;;;;;;5092456;28;20043;-64
2021/11/04 13:21:33;;;;;;;0.00;0.00;;;9.10;99.90;;;;;;5092573;28;20105;-64
2021/11/04 13:24:18;;;;;;;0.00;0.00;;;9.10;99.90;;;;;;5093391;28;20038;-64
2021/11/04 13:27:02;;;;;;;0.52;0.52;;;9.20;99.90;;;;;;5092132;28;20628;-64
2021/11/04 13:29:52;;;;;;;0.05;0.05;;;9.20;99.90;;;;;;5092419;28;20070;-64
2021/11/04 13:32:36;;;;;;;0.05;0.05;;;9.20;99.90;;;;;;5093091;28;20503;-64
2021/11/04 13:35:32;;;;;;;0.57;0.57;;;9.30;99.90;;;;;;5093047;28;20124;-64
2021/11/04 13:38:21;;;;;;;0.30;0.30;;;9.10;99.90;;;;;;5093022;28;20050;-64
2021/11/04 13:41:07;;;;;;;0.57;0.57;;;9.20;99.90;;;;;;5093012;28;20101;-64
2021/11/04 13:43:52;;;;;;;1.67;0.90;;;9.20;99.90;;;;;;5092941;28;20398;-64
2021/11/04 13:46:45;;;;;;;0.10;0.10;;;9.20;99.90;;;;;;5092857;28;20511;-64
2021/11/04 13:49:30;;;;;;;1.70;1.60;;;9.20;99.90;;;;;;5092756;28;20082;-64
2021/11/04 13:52:24;;;;;;;0.20;0.20;;;9.20;99.90;;;;;;5092685;28;20085;-64
2021/11/04 13:55:27;;;;;;;0.43;0.43;;;9.30;99.90;;;;;;5092747;28;20158;-64
2021/11/04 13:58:11;;;;;;;0.17;0.17;;;9.30;99.90;;;;;;5093142;28;20499;-64
2021/11/04 14:01:06;;;;;;;0.10;0.10;;;9.30;99.90;;;;;;5092647;28;20392;-64
2021/11/04 14:04:11;;;;;;;0.20;0.20;;;9.40;99.90;;;;;;5092601;28;20046;-64
2021/11/04 14:06:55;;;;;;;0.17;0.17;;;9.40;99.90;;;;;;5092443;28;20058;-64
2021/11/04 14:09:40;;;;;;;0.10;0.10;;;9.40;99.90;;;;;;5092513;28;20133;-64
2021/11/04 14:12:33;;;;;;;5.53;0.98;;;9.40;99.90;;;;;;5092462;28;20043;-64
2021/11/04 14:15:20;;;;;;;0.57;0.57;;;9.40;99.90;;;;;;5092552;28;20043;-64
2021/11/04 14:18:18;;;;;;;3.92;0.75;;;9.40;99.90;;;;;;5092317;28;20492;-64
2021/11/04 14:21:02;;;;;;;0.20;0.20;;;9.40;99.90;;;;;;5091042;28;20515;-64
2021/11/04 14:23:47;;;;;;;0.00;0.00;;;9.40;99.90;;;;;;5092351;28;20123;-63
2021/11/04 14:26:36;;;;;;;0.98;0.98;;;9.40;99.90;;;;;;5092254;28;20043;-64
2021/11/04 14:29:21;;;;;;;0.63;0.63;;;9.50;99.90;;;;;;5091743;28;20441;-64
2021/11/04 14:32:06;;;;;;;20.98;0.90;;;9.40;99.90;;;;;;5092234;28;20120;-63
2021/11/04 14:34:51;;;;;;;0.00;0.00;;;9.40;99.90;;;;;;5092288;28;20039;-64
2021/11/04 14:37:35;;;;;;;0.47;0.47;;;9.40;99.90;;;;;;5091136;28;20079;-63
2021/11/04 14:40:20;;;;;;;0.93;0.90;;;9.40;99.90;;;;;;5091979;28;20035;-63
2021/11/04 14:43:05;;;;;;;0.10;0.10;;;9.40;99.90;;;;;;5092124;28;20043;-63